createdAt,value
2018-07-21T00:01:23.985Z,100033.00
2018-07-21T00:03:54.424Z,100025.00
2018-07-21T00:06:25.673Z,100029.00
2018-07-21T00:08:56.661Z,100021.00
2018-07-21T00:11:27.790Z,100029.00
2018-07-21T00:13:58.017Z,100042.00
2018-07-21T00:16:29.301Z,100028.00
2018-07-21T00:19:01.470Z,100021.00
2018-07-21T00:21:37.430Z,100018.00
2018-07-21T00:24:07.786Z,100012.00
2018-07-21T00:26:43.556Z,100018.00
2018-07-21T00:29:13.798Z,100015.00
2018-07-21T00:31:45.087Z,100014.00
2018-07-21T00:34:15.194Z,100014.00
2018-07-21T00:36:45.480Z,100009.00
2018-07-21T00:39:16.392Z,100011.00
2018-07-21T00:41:47.245Z,100015.00
2018-07-21T00:44:17.387Z,100009.00
2018-07-21T00:46:47.503Z,100014.00
2018-07-21T00:49:18.712Z,100008.00
2018-07-21T00:51:49.416Z,99993.00
2018-07-21T00:54:19.693Z,99987.00
2018-07-21T00:56:50.545Z,99992.00
2018-07-21T00:59:20.888Z,99982.00
2018-07-21T01:01:51.279Z,99990.00
2018-07-21T01:04:22.199Z,99982.00
2018-07-21T01:06:52.740Z,99989.00
2018-07-21T01:09:23.194Z,99984.00
2018-07-21T01:11:54.517Z,99981.00
2018-07-21T01:14:25.113Z,99988.00
2018-07-21T01:16:55.632Z,99973.00
2018-07-21T01:19:25.987Z,99975.00
2018-07-21T01:21:56.187Z,99964.00
2018-07-21T01:24:26.371Z,99972.00
2018-07-21T01:26:57.439Z,99975.00
2018-07-21T01:29:27.395Z,99979.00
2018-07-21T01:31:58.705Z,99976.00
2018-07-21T01:34:29.182Z,99978.00
2018-07-21T01:36:59.598Z,99984.00
2018-07-21T01:39:29.938Z,99977.00
2018-07-21T01:42:00.268Z,99971.00
2018-07-21T01:44:30.486Z,99988.00
2018-07-21T01:47:00.809Z,99993.00
2018-07-21T01:49:31.101Z,99994.00
2018-07-21T01:52:02.465Z,99984.00
2018-07-21T01:54:33.109Z,99979.00
2018-07-21T01:57:03.654Z,99978.00
2018-07-21T01:59:34.905Z,99977.00
2018-07-21T02:02:04.909Z,99981.00
2018-07-21T02:04:35.130Z,99977.00
2018-07-21T02:07:06.894Z,99976.00
2018-07-21T02:09:36.905Z,99977.00
2018-07-21T02:12:08.326Z,99989.00
2018-07-21T02:14:39.493Z,99989.00
2018-07-21T02:17:10.631Z,99993.00
2018-07-21T02:19:41.187Z,100003.00
2018-07-21T02:22:11.369Z,99989.00
2018-07-21T02:24:41.979Z,99997.00
2018-07-21T02:27:12.081Z,99991.00
2018-07-21T02:29:42.638Z,100003.00
2018-07-21T02:32:13.462Z,99999.00
2018-07-21T02:34:43.935Z,99995.00
2018-07-21T02:37:14.263Z,99996.00
2018-07-21T02:39:44.753Z,99992.00
2018-07-21T02:42:14.928Z,99986.00
2018-07-21T02:50:29.932Z,99984.00
2018-07-21T02:53:00.256Z,99984.00
2018-07-21T02:55:31.687Z,99987.00
2018-07-21T02:58:02.657Z,99985.00
2018-07-21T03:00:33.412Z,99992.00
2018-07-21T03:03:04.106Z,99989.00
2018-07-21T03:05:34.614Z,99993.00
2018-07-21T03:08:04.933Z,99994.00
2018-07-21T03:10:37.209Z,99993.00
2018-07-21T03:13:14.178Z,99988.00
2018-07-21T03:15:44.768Z,99984.00
2018-07-21T03:18:15.588Z,99984.00
2018-07-21T03:20:46.325Z,99990.00
2018-07-21T03:23:17.060Z,99983.00
2018-07-21T03:25:46.866Z,99970.00
2018-07-21T03:28:18.260Z,99969.00
2018-07-21T03:30:49.024Z,99976.00
2018-07-21T03:33:19.339Z,99983.00
2018-07-21T03:35:49.539Z,99978.00
2018-07-21T03:38:20.115Z,99976.00
2018-07-21T03:40:50.814Z,99977.00
2018-07-21T03:43:22.578Z,99988.00
2018-07-21T03:45:53.121Z,99988.00
2018-07-21T03:48:23.501Z,99986.00
2018-07-21T03:50:54.627Z,99988.00
2018-07-21T03:53:25.212Z,100001.00
2018-07-21T03:55:55.772Z,99994.00
2018-07-21T03:58:26.776Z,99996.00
2018-07-21T04:00:57.212Z,100000.00
2018-07-21T04:03:32.902Z,99997.00
2018-07-21T04:06:03.595Z,99992.00
2018-07-21T04:08:34.080Z,99996.00
2018-07-21T04:11:04.442Z,99999.00
2018-07-21T04:13:35.687Z,99998.00
2018-07-21T04:16:06.985Z,99994.00
2018-07-21T04:18:38.613Z,99991.00
2018-07-21T04:21:09.787Z,99988.00
2018-07-21T04:23:39.982Z,99993.00
2018-07-21T04:26:10.698Z,99993.00
2018-07-21T04:28:41.021Z,100001.00
2018-07-21T04:31:11.069Z,99994.00
2018-07-21T04:33:42.566Z,99991.00
2018-07-21T04:36:13.305Z,99995.00
2018-07-21T04:38:43.739Z,99997.00
2018-07-21T04:41:14.664Z,99999.00
2018-07-21T04:43:44.814Z,99994.00
2018-07-21T04:46:15.894Z,99990.00
2018-07-21T04:48:46.070Z,99995.00
2018-07-21T04:51:16.658Z,99997.00
2018-07-21T04:53:47.108Z,100000.00
2018-07-21T04:56:18.949Z,100000.00
2018-07-21T04:58:49.549Z,99994.00
2018-07-21T05:01:20.201Z,99999.00
2018-07-21T05:03:50.560Z,99994.00
2018-07-21T05:06:20.762Z,100005.00
2018-07-21T05:08:51.800Z,100002.00
2018-07-21T05:11:21.958Z,100007.00
2018-07-21T05:13:51.932Z,100005.00
2018-07-21T05:16:22.446Z,100001.00
2018-07-21T05:18:52.591Z,100018.00
2018-07-21T05:21:22.966Z,100016.00
2018-07-21T05:23:53.127Z,100017.00
2018-07-21T05:26:23.460Z,100029.00
2018-07-21T05:28:53.478Z,100034.00
2018-07-21T05:31:23.690Z,100035.00
2018-07-21T05:33:54.227Z,100039.00
2018-07-21T05:36:24.444Z,100049.00
2018-07-21T05:38:56.519Z,100047.00
2018-07-21T05:41:27.410Z,100046.00
2018-07-21T05:43:58.486Z,100055.00
2018-07-21T05:46:29.697Z,100049.00
2018-07-21T05:49:00.090Z,100050.00
2018-07-21T05:51:31.562Z,100052.00
2018-07-21T05:54:01.741Z,100048.00
2018-07-21T05:56:33.336Z,100046.00
2018-07-21T05:59:05.157Z,100043.00
2018-07-21T06:01:36.086Z,100047.00
2018-07-21T06:04:06.206Z,100039.00
2018-07-21T06:06:36.740Z,100044.00
2018-07-21T06:09:10.834Z,100042.00
2018-07-21T06:11:42.326Z,100037.00
2018-07-21T06:14:12.910Z,100043.00
2018-07-21T06:16:43.944Z,100047.00
2018-07-21T06:19:15.351Z,100050.00
2018-07-21T06:21:46.369Z,100051.00
2018-07-21T06:24:18.120Z,100051.00
2018-07-21T06:26:48.314Z,100049.00
2018-07-21T06:29:18.701Z,100055.00
2018-07-21T06:31:48.881Z,100060.00
2018-07-21T06:34:19.063Z,100058.00
2018-07-21T06:36:49.610Z,100068.00
2018-07-21T06:39:22.666Z,100079.00
2018-07-21T06:41:52.815Z,100069.00
2018-07-21T06:44:23.457Z,100089.00
2018-07-21T06:46:54.300Z,100075.00
2018-07-21T06:49:25.015Z,100079.00
2018-07-21T06:51:55.436Z,100082.00
2018-07-21T06:54:25.837Z,100087.00
2018-07-21T06:56:56.230Z,100084.00
2018-07-21T06:59:27.030Z,100080.00
2018-07-21T07:01:58.084Z,100076.00
2018-07-21T07:04:28.941Z,100073.00
2018-07-21T07:06:59.937Z,100080.00
2018-07-21T07:09:30.752Z,100083.00
2018-07-21T07:12:02.057Z,100092.00
2018-07-21T07:14:33.830Z,100091.00
2018-07-21T07:17:05.575Z,100094.00
2018-07-21T07:19:35.894Z,100098.00
2018-07-21T07:22:06.184Z,100094.00
2018-07-21T07:24:38.238Z,100103.00
2018-07-21T07:27:08.917Z,100101.00
2018-07-21T07:29:39.982Z,100094.00
2018-07-21T07:32:10.073Z,100099.00
2018-07-21T07:34:40.909Z,100099.00
2018-07-21T07:37:11.131Z,100101.00
2018-07-21T07:39:41.482Z,100099.00
2018-07-21T07:42:15.325Z,100106.00
2018-07-21T07:44:48.472Z,100110.00
2018-07-21T07:47:18.842Z,100103.00
2018-07-21T07:49:48.923Z,100103.00
2018-07-21T07:52:19.229Z,100108.00
2018-07-21T07:54:50.668Z,100121.00
2018-07-21T07:57:21.635Z,100118.00
2018-07-21T07:59:51.553Z,100126.00
2018-07-21T08:02:22.131Z,100124.00
2018-07-21T08:04:53.099Z,100124.00
2018-07-21T08:07:24.775Z,100129.00
2018-07-21T08:09:55.409Z,100125.00
2018-07-21T08:12:26.191Z,100121.00
2018-07-21T08:14:57.477Z,100126.00
2018-07-21T08:17:27.510Z,100119.00
2018-07-21T08:19:59.004Z,100117.00
2018-07-21T08:22:29.289Z,100116.00
2018-07-21T08:24:59.578Z,100123.00
2018-07-21T08:27:31.237Z,100115.00
2018-07-21T08:30:03.323Z,100114.00
2018-07-21T08:32:36.070Z,100110.00
2018-07-21T08:35:07.117Z,100108.00
2018-07-21T08:37:38.308Z,100104.00
2018-07-21T08:40:09.885Z,100109.00
2018-07-21T08:42:41.296Z,100105.00
2018-07-21T08:45:11.406Z,100105.00
2018-07-21T08:47:42.573Z,100114.00
2018-07-21T08:50:19.504Z,100112.00
2018-07-21T08:52:50.291Z,100111.00
2018-07-21T08:55:20.642Z,100112.00
2018-07-21T08:57:51.445Z,100114.00
2018-07-21T09:00:21.548Z,100109.00
2018-07-21T09:02:51.776Z,100108.00
2018-07-21T09:05:21.817Z,100097.00
2018-07-21T09:07:52.759Z,100101.00
2018-07-21T09:10:23.750Z,100102.00
2018-07-21T09:12:54.469Z,100105.00
2018-07-21T09:15:25.733Z,100104.00
2018-07-21T09:17:56.029Z,100103.00
2018-07-21T09:20:26.469Z,100105.00
2018-07-21T09:22:57.971Z,100108.00
2018-07-21T09:25:28.615Z,100106.00
2018-07-21T09:27:58.879Z,100103.00
2018-07-21T09:30:28.932Z,100105.00
2018-07-21T09:33:00.758Z,100107.00
2018-07-21T09:35:37.184Z,100103.00
2018-07-21T09:38:08.144Z,100105.00
2018-07-21T09:40:38.354Z,100108.00
2018-07-21T09:43:08.793Z,100113.00
2018-07-21T09:45:39.605Z,100115.00
2018-07-21T09:48:09.785Z,100116.00
2018-07-21T09:50:41.448Z,100105.00
2018-07-21T09:53:12.068Z,100108.00
2018-07-21T09:55:42.857Z,100115.00
2018-07-21T09:58:12.990Z,100104.00
2018-07-21T10:01:03.757Z,100107.00
2018-07-21T10:03:34.979Z,100111.00
2018-07-21T10:06:05.818Z,100107.00
2018-07-21T10:08:36.230Z,100118.00
2018-07-21T10:11:07.646Z,100119.00
2018-07-21T10:13:37.808Z,100118.00
2018-07-21T10:16:08.005Z,100125.00
2018-07-21T10:18:38.353Z,100111.00
2018-07-21T10:21:08.750Z,100116.00
2018-07-21T10:23:39.797Z,100117.00
2018-07-21T10:26:15.830Z,100120.00
2018-07-21T10:28:53.309Z,100113.00
2018-07-21T10:31:26.206Z,100115.00
2018-07-21T10:33:56.516Z,100114.00
2018-07-21T10:36:26.826Z,100110.00
2018-07-21T10:38:57.225Z,100112.00
2018-07-21T10:41:27.638Z,100107.00
2018-07-21T10:43:57.870Z,100106.00
2018-07-21T10:46:28.130Z,100111.00
2018-07-21T10:48:58.863Z,100116.00
2018-07-21T10:51:29.098Z,100112.00
2018-07-21T10:53:59.877Z,100118.00
2018-07-21T10:56:30.267Z,100114.00
2018-07-21T10:59:01.208Z,100119.00
2018-07-21T11:01:32.075Z,100111.00
2018-07-21T11:04:03.489Z,100108.00
2018-07-21T11:06:35.795Z,100061.00
2018-07-21T11:09:08.776Z,100109.00
2018-07-21T11:11:38.879Z,100108.00
2018-07-21T11:14:10.349Z,100107.00
2018-07-21T11:16:42.461Z,100121.00
2018-07-21T11:19:14.216Z,100108.00
2018-07-21T11:21:46.703Z,100120.00
2018-07-21T11:24:16.909Z,100120.00
2018-07-21T11:26:47.823Z,100105.00
2018-07-21T11:29:20.592Z,100118.00
2018-07-21T11:31:52.431Z,100121.00
2018-07-21T11:34:23.181Z,100116.00
2018-07-21T11:36:54.279Z,100113.00
2018-07-21T11:39:25.020Z,100114.00
2018-07-21T11:41:57.462Z,100115.00
2018-07-21T11:44:28.044Z,100110.00
2018-07-21T11:46:58.452Z,100107.00
2018-07-21T11:49:29.080Z,100067.00
2018-07-21T11:52:00.996Z,100116.00
2018-07-21T11:54:31.072Z,100108.00
2018-07-21T11:57:02.554Z,100120.00
2018-07-21T11:59:34.236Z,100114.00
2018-07-21T12:02:05.191Z,100114.00
2018-07-21T12:04:35.940Z,100124.00
2018-07-21T12:07:06.390Z,100113.00
2018-07-21T12:09:37.102Z,100116.00
2018-07-21T12:12:07.434Z,100114.00
2018-07-21T12:14:37.350Z,100119.00
2018-07-21T12:17:07.201Z,100111.00
2018-07-21T12:19:37.527Z,100109.00
2018-07-21T12:22:07.781Z,100110.00
2018-07-21T12:24:38.214Z,100113.00
2018-07-21T12:27:09.302Z,100124.00
2018-07-21T12:29:39.746Z,100117.00
2018-07-21T12:32:10.225Z,100106.00
2018-07-21T12:34:40.729Z,100108.00
2018-07-21T12:37:11.132Z,100101.00
2018-07-21T12:39:41.634Z,100101.00
2018-07-21T12:42:13.388Z,100100.00
2018-07-21T12:44:44.117Z,100093.00
2018-07-21T12:47:14.697Z,100089.00
2018-07-21T12:49:45.023Z,100088.00
2018-07-21T12:52:15.429Z,100087.00
2018-07-21T12:54:45.690Z,100092.00
2018-07-21T12:57:16.698Z,100088.00
2018-07-21T12:59:46.735Z,100089.00
2018-07-21T13:02:17.696Z,100090.00
2018-07-21T13:04:48.010Z,100094.00
2018-07-21T13:07:19.771Z,100095.00
2018-07-21T13:09:50.706Z,100096.00
2018-07-21T13:12:21.092Z,100090.00
2018-07-21T13:14:51.557Z,100103.00
2018-07-21T13:17:21.878Z,100102.00
2018-07-21T13:19:52.542Z,100100.00
2018-07-21T13:22:22.810Z,100092.00
2018-07-21T13:24:53.192Z,100100.00
2018-07-21T13:27:23.686Z,100097.00
2018-07-21T13:29:54.153Z,100093.00
2018-07-21T13:32:24.965Z,100098.00
2018-07-21T13:34:54.912Z,100093.00
2018-07-21T13:37:26.381Z,100100.00
2018-07-21T13:39:56.488Z,100096.00
2018-07-21T13:42:27.291Z,100105.00
2018-07-21T13:44:57.807Z,100104.00
2018-07-21T13:47:28.875Z,100104.00
2018-07-21T13:49:59.326Z,100103.00
2018-07-21T13:52:29.312Z,100102.00
2018-07-21T13:54:59.829Z,100099.00
2018-07-21T13:57:29.796Z,100112.00
2018-07-21T14:00:07.569Z,100106.00
2018-07-21T14:02:38.320Z,100108.00
2018-07-21T14:05:10.440Z,100111.00
2018-07-21T14:07:41.587Z,100112.00
2018-07-21T14:10:13.102Z,100121.00
2018-07-21T14:12:43.214Z,100123.00
2018-07-21T14:15:13.347Z,100116.00
2018-07-21T14:17:43.608Z,100114.00
2018-07-21T14:20:13.876Z,100121.00
2018-07-21T14:22:44.100Z,100119.00
2018-07-21T14:25:14.439Z,100114.00
2018-07-21T14:27:44.530Z,100113.00
2018-07-21T14:30:14.704Z,100111.00
2018-07-21T14:32:45.425Z,100111.00
2018-07-21T14:35:15.966Z,100110.00
2018-07-21T14:37:47.115Z,100109.00
2018-07-21T14:40:17.220Z,100113.00
2018-07-21T14:42:48.680Z,100110.00
2018-07-21T14:45:18.809Z,100111.00
2018-07-21T14:47:49.038Z,100112.00
2018-07-21T14:50:19.459Z,100119.00
2018-07-21T14:52:50.099Z,100119.00
2018-07-21T14:55:21.966Z,100115.00
2018-07-21T14:57:52.528Z,100118.00
2018-07-21T15:00:22.954Z,100123.00
2018-07-21T15:02:53.129Z,100116.00
2018-07-21T15:05:23.732Z,100123.00
2018-07-21T15:07:54.601Z,100117.00
2018-07-21T15:10:25.386Z,100114.00
2018-07-21T15:12:56.105Z,100106.00
2018-07-21T15:15:26.337Z,100109.00
2018-07-21T15:17:57.456Z,100116.00
2018-07-21T15:20:29.184Z,100110.00
2018-07-21T15:22:59.508Z,100108.00
2018-07-21T15:25:29.967Z,100110.00
2018-07-21T15:28:00.895Z,100108.00
2018-07-21T15:30:31.333Z,100110.00
2018-07-21T15:33:01.814Z,100110.00
2018-07-21T15:35:32.136Z,100122.00
2018-07-21T15:38:02.953Z,100116.00
2018-07-21T15:40:33.302Z,100116.00
2018-07-21T15:43:03.392Z,100115.00
2018-07-21T15:45:34.772Z,100112.00
2018-07-21T15:48:05.213Z,100111.00
2018-07-21T15:50:35.473Z,100103.00
2018-07-21T15:53:06.093Z,100104.00
2018-07-21T15:55:36.442Z,100108.00
2018-07-21T15:58:06.848Z,100113.00
2018-07-21T16:00:37.482Z,100105.00
2018-07-21T16:03:07.756Z,100100.00
2018-07-21T16:05:38.906Z,100104.00
2018-07-21T16:08:10.191Z,100105.00
2018-07-21T16:10:40.753Z,100104.00
2018-07-21T16:13:11.116Z,100114.00
2018-07-21T16:15:42.853Z,100109.00
2018-07-21T16:18:21.413Z,100108.00
2018-07-21T16:20:51.641Z,100113.00
2018-07-21T16:23:23.079Z,100109.00
2018-07-21T16:25:53.479Z,100112.00
2018-07-21T16:28:24.398Z,100118.00
2018-07-21T16:30:54.689Z,100117.00
2018-07-21T16:33:24.744Z,100105.00
2018-07-21T16:35:55.117Z,100105.00
2018-07-21T16:38:26.145Z,100117.00
2018-07-21T16:40:56.380Z,100106.00
2018-07-21T16:43:26.894Z,100106.00
2018-07-21T16:45:57.179Z,100098.00
2018-07-21T16:48:27.678Z,100104.00
2018-07-21T16:50:57.804Z,100104.00
2018-07-21T16:53:28.121Z,100103.00
2018-07-21T16:55:58.668Z,100102.00
2018-07-21T16:58:28.898Z,100108.00
2018-07-21T17:00:59.144Z,100098.00
2018-07-21T17:03:29.789Z,100099.00
2018-07-21T17:06:00.435Z,100105.00
2018-07-21T17:08:30.996Z,100109.00
2018-07-21T17:11:01.245Z,100104.00
2018-07-21T17:13:31.738Z,100102.00
2018-07-21T17:16:02.689Z,100105.00
2018-07-21T17:18:32.826Z,100099.00
2018-07-21T17:21:03.248Z,100104.00
2018-07-21T17:23:33.550Z,100096.00
2018-07-21T17:26:03.724Z,100097.00
2018-07-21T17:28:34.070Z,100105.00
2018-07-21T17:31:04.386Z,100098.00
2018-07-21T17:33:35.348Z,100100.00
2018-07-21T17:36:05.819Z,100098.00
2018-07-21T17:38:36.331Z,100091.00
2018-07-21T17:41:06.670Z,100095.00
2018-07-21T17:43:36.761Z,100093.00
2018-07-21T17:46:07.347Z,100096.00
2018-07-21T17:48:37.777Z,100099.00
2018-07-21T17:51:08.037Z,100097.00
2018-07-21T17:53:38.673Z,100101.00
2018-07-21T17:56:09.217Z,100098.00
2018-07-21T17:58:40.273Z,100105.00
2018-07-21T18:01:13.733Z,100105.00
2018-07-21T18:03:44.992Z,100103.00
2018-07-21T18:06:15.529Z,100104.00
2018-07-21T18:08:45.655Z,100104.00
2018-07-21T18:11:16.149Z,100117.00
2018-07-21T18:13:47.042Z,100009.00
2018-07-21T18:16:17.489Z,100122.00
2018-07-21T18:18:47.748Z,100119.00
2018-07-21T18:21:18.181Z,100117.00
2018-07-21T18:23:48.899Z,100117.00
2018-07-21T18:26:19.658Z,100120.00
2018-07-21T18:28:49.801Z,100114.00
2018-07-21T18:31:21.311Z,100098.00
2018-07-21T18:33:51.940Z,100101.00
2018-07-21T18:36:22.315Z,100104.00
2018-07-21T18:38:53.312Z,100112.00
2018-07-21T18:41:24.186Z,100110.00
2018-07-21T18:43:54.481Z,100108.00
2018-07-21T18:46:24.645Z,100115.00
2018-07-21T18:48:56.403Z,100111.00
2018-07-21T18:51:27.787Z,100108.00
2018-07-21T18:53:59.116Z,100113.00
2018-07-21T18:56:30.445Z,100117.00
2018-07-21T18:59:01.752Z,100125.00
2018-07-21T19:01:32.072Z,100114.00
2018-07-21T19:04:03.078Z,100119.00
2018-07-21T19:06:33.503Z,100125.00
2018-07-21T19:09:06.135Z,100123.00
2018-07-21T19:11:37.308Z,100120.00
2018-07-21T19:14:09.033Z,100122.00
2018-07-21T19:16:44.076Z,100131.00
2018-07-21T19:19:14.651Z,100125.00
2018-07-21T19:21:45.428Z,100131.00
2018-07-21T19:24:16.906Z,100129.00
2018-07-21T19:26:52.083Z,100119.00
2018-07-21T19:29:23.264Z,100123.00
2018-07-21T19:32:01.925Z,100123.00
2018-07-21T19:34:32.064Z,100133.00
2018-07-21T19:37:03.229Z,100127.00
2018-07-21T19:39:34.110Z,100124.00
2018-07-21T19:42:04.573Z,100117.00
2018-07-21T19:44:36.709Z,100130.00
2018-07-21T19:47:07.272Z,100122.00
2018-07-21T19:49:39.242Z,100121.00
2018-07-21T19:52:10.152Z,100131.00
2018-07-21T19:54:43.165Z,100128.00
2018-07-21T19:57:13.559Z,100135.00
2018-07-21T19:59:45.720Z,100137.00
2018-07-21T20:02:22.703Z,100137.00
2018-07-21T20:04:53.276Z,100140.00
2018-07-21T20:07:23.912Z,100148.00
2018-07-21T20:09:54.716Z,100146.00
2018-07-21T20:12:25.448Z,100147.00
2018-07-21T20:14:55.655Z,100149.00
2018-07-21T20:17:26.115Z,100145.00
2018-07-21T20:19:56.377Z,100156.00
2018-07-21T20:22:26.498Z,100148.00
2018-07-21T20:24:56.764Z,100166.00
2018-07-21T20:27:27.516Z,100163.00
2018-07-21T20:29:58.029Z,100164.00
2018-07-21T20:32:28.625Z,100164.00
2018-07-21T20:34:59.640Z,100168.00
2018-07-21T20:37:29.989Z,100161.00
2018-07-21T20:39:59.929Z,100174.00
2018-07-21T20:42:31.247Z,100173.00
2018-07-21T20:45:01.405Z,100172.00
2018-07-21T20:47:31.637Z,100168.00
2018-07-21T20:50:01.906Z,100171.00
2018-07-21T20:52:32.388Z,100166.00
2018-07-21T20:55:04.651Z,100174.00
2018-07-21T20:57:37.123Z,100167.00
2018-07-21T21:00:08.269Z,100163.00
2018-07-21T21:02:40.547Z,100174.00
2018-07-21T21:05:12.144Z,100174.00
2018-07-21T21:07:42.229Z,100177.00
2018-07-21T21:10:12.713Z,100178.00
2018-07-21T21:12:42.949Z,100184.00
2018-07-21T21:15:13.445Z,100176.00
2018-07-21T21:17:44.442Z,100188.00
2018-07-21T21:20:14.599Z,100181.00
2018-07-21T21:22:46.026Z,100183.00
2018-07-21T21:25:16.402Z,100189.00
2018-07-21T21:27:48.074Z,100188.00
2018-07-21T21:30:20.787Z,100192.00
2018-07-21T21:32:50.975Z,100200.00
2018-07-21T21:35:21.808Z,100199.00
2018-07-21T21:37:52.778Z,100195.00
2018-07-21T21:40:23.436Z,100198.00
2018-07-21T21:42:54.549Z,100189.00
2018-07-21T21:45:24.814Z,100188.00
2018-07-21T21:47:55.628Z,100189.00
2018-07-21T21:50:25.880Z,100193.00
2018-07-21T21:52:57.532Z,100191.00
2018-07-21T21:55:29.766Z,100194.00
2018-07-21T21:57:59.584Z,100195.00
2018-07-21T22:01:00.611Z,100204.00
2018-07-21T22:03:31.518Z,100204.00
2018-07-21T22:06:02.920Z,100202.00
2018-07-21T22:08:33.720Z,100203.00
2018-07-21T22:11:04.508Z,100200.00
2018-07-21T22:13:34.723Z,100203.00
2018-07-21T22:16:04.965Z,100204.00
2018-07-21T22:18:35.195Z,100197.00
2018-07-21T22:21:05.369Z,100196.00
2018-07-21T22:23:36.878Z,100194.00
2018-07-21T22:26:07.640Z,100197.00
2018-07-21T22:28:37.994Z,100200.00
2018-07-21T22:31:08.784Z,100197.00
2018-07-21T22:33:39.775Z,100204.00
2018-07-21T22:36:10.379Z,100209.00
2018-07-21T22:38:41.003Z,100218.00
2018-07-21T22:41:11.437Z,100215.00
2018-07-21T22:43:42.870Z,100219.00
2018-07-21T22:46:13.640Z,100208.00
2018-07-21T22:48:43.970Z,100216.00
2018-07-21T22:51:17.278Z,100214.00
2018-07-21T22:53:48.064Z,100213.00
2018-07-21T22:56:19.584Z,100213.00
2018-07-21T22:58:50.116Z,100212.00
2018-07-21T23:01:20.848Z,100217.00
2018-07-21T23:03:53.034Z,100218.00
2018-07-21T23:06:23.613Z,100217.00
2018-07-21T23:08:55.110Z,100223.00
2018-07-21T23:11:25.214Z,100219.00
2018-07-21T23:13:55.461Z,100219.00
2018-07-21T23:16:25.857Z,100217.00
2018-07-21T23:18:56.497Z,100219.00
2018-07-21T23:21:26.747Z,100226.00
2018-07-21T23:23:57.145Z,100217.00
2018-07-21T23:26:27.605Z,100226.00
2018-07-21T23:28:57.881Z,100233.00
2018-07-21T23:31:28.533Z,100225.00
2018-07-21T23:33:58.893Z,100225.00
2018-07-21T23:36:30.017Z,100225.00
2018-07-21T23:39:00.849Z,100178.00
2018-07-21T23:41:32.424Z,100227.00
2018-07-21T23:44:03.198Z,100222.00
2018-07-21T23:46:34.803Z,100222.00
2018-07-21T23:49:05.316Z,100219.00
2018-07-21T23:51:35.911Z,100211.00
2018-07-21T23:54:07.080Z,100222.00
2018-07-21T23:56:37.654Z,100218.00
2018-07-21T23:59:09.625Z,100222.00
